Time,TemperatureF,DewpointF,PressureIn,WindDirection,WindDirectionDegrees,WindSpeedMPH,WindSpeedGustMPH,Humidity,HourlyPrecipIn,Conditions,Clouds,dailyrainin,SoftwareType,DateUTC
2013-02-19 03:20:00,41.5,35.8,30.00,NNW,342,1.0,6.0,80,0.00,CLR,,0.00,WeatherDisplay:10.37,2013-02-19 02:20:00,
2013-02-19 03:30:00,41.6,35.9,30.00,NW,323,5.0,8.0,80,0.00,CLR,,0.00,WeatherDisplay:10.37,2013-02-19 02:30:00,
2013-02-19 03:40:00,41.5,35.8,30.00,NNW,331,3.0,7.0,80,0.00,CLR,,0.00,WeatherDisplay:10.37,2013-02-19 02:40:00,
2013-02-19 03:50:00,41.4,35.4,30.00,NNW,340,5.0,8.0,79,0.00,CLR,,0.00,WeatherDisplay:10.37,2013-02-19 02:50:00,
2013-02-19 04:00:00,41.2,35.5,30.00,NNW,334,3.0,8.0,80,0.00,CLR,,0.00,WeatherDisplay:10.37,2013-02-19 03:00:00,
2013-02-19 04:10:00,41.0,35.3,30.00,NNW,331,3.0,8.0,80,0.00,CLR,,0.00,WeatherDisplay:10.37,2013-02-19 03:10:00,
2013-02-19 04:20:00,41.1,35.1,30.00,NNW,341,3.0,8.0,79,0.00,CLR,,0.00,WeatherDisplay:10.37,2013-02-19 03:20:00,
2013-02-19 04:30:00,41.1,35.1,30.00,NNW,338,2.0,8.0,79,0.00,CLR,,0.00,WeatherDisplay:10.37,2013-02-19 03:30:00,
2013-02-19 04:40:00,41.0,35.0,30.00,NNW,336,2.0,9.0,79,0.00,CLR,,0.00,WeatherDisplay:10.37,2013-02-19 03:40:00,
2013-02-19 04:50:00,41.0,35.0,30.00,NW,324,2.0,8.0,79,0.00,CLR,,0.00,WeatherDisplay:10.37,2013-02-19 03:50:00,
2013-02-19 05:00:00,40.9,34.9,30.00,NNW,337,3.0,7.0,79,0.00,CLR,,0.00,WeatherDisplay:10.37,2013-02-19 04:00:00,
2013-02-19 05:10:00,40.8,34.8,30.00,NNW,332,3.0,7.0,79,0.00,CLR,,0.00,WeatherDisplay:10.37,2013-02-19 04:10:00,
2013-02-19 05:20:00,40.7,34.7,30.00,NNW,336,3.0,7.0,79,0.00,CLR,,0.00,WeatherDisplay:10.37,2013-02-19 04:20:00,
2013-02-19 05:30:00,40.7,34.7,30.00,NW,325,2.0,7.0,79,0.00,CLR,,0.00,WeatherDisplay:10.37,2013-02-19 04:30:00,
2013-02-19 05:40:00,40.9,34.2,30.00,North,358,1.0,6.0,77,0.00,CLR,,0.00,WeatherDisplay:10.37,2013-02-19 04:40:00,
2013-02-19 05:50:00,41.4,34.4,30.00,NW,325,2.0,4.0,76,0.00,CLR,,0.00,WeatherDisplay:10.37,2013-02-19 04:50:00,
2013-02-19 06:00:00,41.6,34.3,30.00,North,360,1.0,7.0,75,0.00,CLR,,0.00,WeatherDisplay:10.37,2013-02-19 05:00:00,
2013-02-19 06:10:00,41.5,34.2,30.00,NNE,15,0.0,7.0,75,0.00,CLR,,0.00,WeatherDisplay:10.37,2013-02-19 05:10:00,
2013-02-19 06:20:00,41.6,33.9,30.00,NNE,22,1.0,8.0,74,0.00,CLR,,0.00,WeatherDisplay:10.37,2013-02-19 05:20:00,
2013-02-19 06:30:00,41.6,33.9,30.00,NNE,14,1.0,4.0,74,0.00,CLR,,0.00,WeatherDisplay:10.37,2013-02-19 05:30:00,
2013-02-19 06:40:00,41.6,33.9,30.00,NNW,338,1.0,6.0,74,0.00,CLR,,0.00,WeatherDisplay:10.37,2013-02-19 05:40:00,
2013-02-19 06:50:00,41.6,34.3,30.00,NW,317,0.0,6.0,75,0.00,CLR,,0.00,WeatherDisplay:10.37,2013-02-19 05:50:00,
2013-02-19 07:00:00,41.6,34.3,30.00,NW,326,1.0,4.0,75,0.00,CLR,,0.00,WeatherDisplay:10.37,2013-02-19 06:00:00,
2013-02-19 07:10:00,41.3,34.3,30.00,NNW,345,1.0,4.0,76,0.00,CLR,,0.00,WeatherDisplay:10.37,2013-02-19 06:10:00,
2013-02-19 07:20:00,41.0,34.3,30.00,NNW,333,3.0,6.0,77,0.00,CLR,,0.00,WeatherDisplay:10.37,2013-02-19 06:20:00,
2013-02-19 07:30:00,40.9,34.2,30.00,NNW,347,3.0,7.0,77,0.00,CLR,,0.00,WeatherDisplay:10.37,2013-02-19 06:30:00,
2013-02-19 07:40:00,41.1,34.4,30.00,NNW,338,2.0,6.0,77,0.00,CLR,,0.00,WeatherDisplay:10.37,2013-02-19 06:40:00,
2013-02-19 07:50:00,41.9,34.5,30.01,NNW,332,1.0,4.0,75,0.00,CLR,,0.00,WeatherDisplay:10.37,2013-02-19 06:50:00,
2013-02-19 08:00:00,43.1,34.3,30.01,NNE,28,1.0,6.0,71,0.00,CLR,,0.00,WeatherDisplay:10.37,2013-02-19 07:00:00,
2013-02-19 08:10:00,43.8,34.6,30.01,North,8,3.0,6.0,70,0.00,CLR,,0.00,WeatherDisplay:10.37,2013-02-19 07:10:00,
2013-02-19 08:20:00,44.1,35.0,30.02,NNW,344,2.0,6.0,70,0.00,CLR,,0.00,WeatherDisplay:10.37,2013-02-19 07:20:00,
2013-02-19 08:30:00,44.1,35.0,30.02,NNW,341,1.0,7.0,70,0.00,CLR,,0.00,WeatherDisplay:10.37,2013-02-19 07:30:00,
2013-02-19 08:40:00,44.4,34.5,30.03,NW,324,2.0,7.0,68,0.00,CLR,,0.00,WeatherDisplay:10.37,2013-02-19 07:40:00,
2013-02-19 08:50:00,44.7,34.1,30.03,NNE,16,3.0,7.0,66,0.00,CLR,,0.00,WeatherDisplay:10.37,2013-02-19 07:50:00,
2013-02-19 09:00:00,45.0,33.5,30.03,NNE,20,5.0,7.0,64,0.00,CLR,,0.00,WeatherDisplay:10.37,2013-02-19 08:00:00,
2013-02-19 09:10:00,45.3,33.4,30.03,NNE,32,5.0,8.0,63,0.00,CLR,,0.00,WeatherDisplay:10.37,2013-02-19 08:10:00,
2013-02-19 09:20:00,45.6,34.1,30.03,NNE,33,3.0,7.0,64,0.00,CLR,,0.00,WeatherDisplay:10.37,2013-02-19 08:20:00,
2013-02-19 09:30:00,46.0,33.7,30.03,NNE,28,2.0,6.0,62,0.00,CLR,,0.00,WeatherDisplay:10.37,2013-02-19 08:30:00,
2013-02-19 09:40:00,46.1,33.4,30.03,NE,38,1.0,7.0,61,0.00,CLR,,0.00,WeatherDisplay:10.37,2013-02-19 08:40:00,
2013-02-19 09:50:00,46.4,32.9,30.03,NE,37,0.0,6.0,59,0.00,CLR,,0.00,WeatherDisplay:10.37,2013-02-19 08:50:00,
2013-02-19 10:00:00,47.0,33.0,30.03,NNE,31,2.0,6.0,58,0.00,CLR,,0.00,WeatherDisplay:10.37,2013-02-19 09:00:00,
2013-02-19 10:10:00,47.4,33.4,30.03,North,8,1.0,5.0,58,0.00,CLR,,0.00,WeatherDisplay:10.37,2013-02-19 09:10:00,
2013-02-19 10:20:00,47.8,32.9,30.03,NNE,31,1.0,5.0,56,0.00,CLR,,0.00,WeatherDisplay:10.37,2013-02-19 09:20:00,
2013-02-19 10:30:00,48.1,32.7,30.03,NNE,32,1.0,6.0,55,0.00,CLR,,0.00,WeatherDisplay:10.37,2013-02-19 09:30:00,
2013-02-19 10:40:00,48.4,32.5,30.03,NE,50,1.0,6.0,54,0.00,CLR,,0.00,WeatherDisplay:10.37,2013-02-19 09:40:00,
2013-02-19 10:50:00,48.6,33.1,30.03,NNW,345,0.0,6.0,55,0.00,CLR,,0.00,WeatherDisplay:10.37,2013-02-19 09:50:00,
2013-02-19 11:00:00,48.6,33.1,30.03,North,5,0.0,5.0,55,0.00,CLR,,0.00,WeatherDisplay:10.37,2013-02-19 10:00:00,
2013-02-19 11:10:00,48.9,32.9,30.03,NE,42,1.0,5.0,54,0.00,CLR,,0.00,WeatherDisplay:10.37,2013-02-19 10:10:00,
2013-02-19 11:20:00,49.9,33.4,30.03,ESE,110,0.0,2.0,53,0.00,CLR,,0.00,WeatherDisplay:10.37,2013-02-19 10:20:00,
2013-02-19 11:30:00,50.3,32.9,30.03,NNW,348,1.0,4.0,51,0.00,CLR,,0.00,WeatherDisplay:10.37,2013-02-19 10:30:00,
2013-02-19 11:40:00,50.5,33.0,30.03,NNW,345,2.0,5.0,51,0.00,CLR,,0.00,WeatherDisplay:10.37,2013-02-19 10:40:00,
2013-02-19 11:50:00,50.3,34.3,30.03,NNW,327,1.0,4.0,54,0.00,CLR,,0.00,WeatherDisplay:10.37,2013-02-19 10:50:00,
2013-02-19 12:00:00,50.9,34.8,30.03,NNW,329,2.0,6.0,54,0.00,CLR,,0.00,WeatherDisplay:10.37,2013-02-19 11:00:00,
2013-02-19 12:10:00,50.8,34.3,30.03,WNW,287,2.0,6.0,53,0.00,CLR,,0.00,WeatherDisplay:10.37,2013-02-19 11:10:00,
2013-02-19 12:20:00,51.1,33.6,30.02,NNW,335,0.0,6.0,51,0.00,CLR,,0.00,WeatherDisplay:10.37,2013-02-19 11:20:00,
2013-02-19 12:30:00,51.4,32.9,30.02,NNW,333,0.0,4.0,49,0.00,CLR,,0.00,WeatherDisplay:10.37,2013-02-19 11:30:00,
2013-02-19 12:40:00,51.9,32.3,30.01,NE,47,1.0,3.0,47,0.00,CLR,,0.00,WeatherDisplay:10.37,2013-02-19 11:40:00,
2013-02-19 12:50:00,51.1,31.6,30.01,WNW,293,1.0,4.0,47,0.00,CLR,,0.00,WeatherDisplay:10.37,2013-02-19 11:50:00,
2013-02-19 13:00:00,50.7,32.7,30.01,West,275,1.0,4.0,50,0.00,CLR,,0.00,WeatherDisplay:10.37,2013-02-19 12:00:00,
2013-02-19 13:10:00,51.7,33.6,30.01,NNE,27,0.0,2.0,50,0.00,CLR,,0.00,WeatherDisplay:10.37,2013-02-19 12:10:00,
2013-02-19 13:20:00,51.6,35.5,30.00,ESE,103,1.0,3.0,54,0.00,CLR,,0.00,WeatherDisplay:10.37,2013-02-19 12:20:00,
2013-02-19 13:30:00,51.4,33.8,30.00,South,188,0.0,4.0,51,0.00,CLR,,0.00,WeatherDisplay:10.37,2013-02-19 12:30:00,
2013-02-19 13:40:00,51.2,36.0,30.00,SSE,164,0.0,3.0,56,0.00,CLR,,0.00,WeatherDisplay:10.37,2013-02-19 12:40:00,
2013-02-19 13:50:00,51.3,35.2,30.00,West,259,0.0,4.0,54,0.00,CLR,,0.00,WeatherDisplay:10.37,2013-02-19 12:50:00,
2013-02-19 14:00:00,52.0,35.9,30.00,NNW,328,2.0,4.0,54,0.00,CLR,,0.00,WeatherDisplay:10.37,2013-02-19 13:00:00,
2013-02-19 14:10:00,52.1,35.9,30.00,SSE,163,1.0,5.0,54,0.00,CLR,,0.00,WeatherDisplay:10.37,2013-02-19 13:10:00,
2013-02-19 14:20:00,52.2,35.5,29.99,South,185,1.0,6.0,53,0.00,CLR,,0.00,WeatherDisplay:10.37,2013-02-19 13:20:00,
2013-02-19 14:30:00,52.6,35.5,29.99,South,185,1.0,3.0,52,0.00,CLR,,0.00,WeatherDisplay:10.37,2013-02-19 13:30:00,
2013-02-19 14:40:00,53.6,35.4,29.99,SSW,200,1.0,4.0,50,0.00,CLR,,0.00,WeatherDisplay:10.37,2013-02-19 13:40:00,
2013-02-19 14:50:00,54.2,36.0,29.99,South,175,0.0,4.0,50,0.00,CLR,,0.00,WeatherDisplay:10.37,2013-02-19 13:50:00,
2013-02-19 15:00:00,53.8,34.0,29.99,WNW,286,3.0,6.0,47,0.00,CLR,,0.00,WeatherDisplay:10.37,2013-02-19 14:00:00,
2013-02-19 15:10:00,52.5,33.4,29.99,WSW,251,1.0,4.0,48,0.00,CLR,,0.00,WeatherDisplay:10.37,2013-02-19 14:10:00,
2013-02-19 15:20:00,52.2,35.1,29.99,West,276,2.0,6.0,52,0.00,CLR,,0.00,WeatherDisplay:10.37,2013-02-19 14:20:00,
2013-02-19 15:30:00,53.0,35.8,29.99,West,263,2.0,6.0,52,0.00,CLR,,0.00,WeatherDisplay:10.37,2013-02-19 14:30:00,
2013-02-19 15:40:00,52.9,35.7,29.99,SW,215,2.0,13.0,52,0.00,CLR,,0.00,WeatherDisplay:10.37,2013-02-19 14:40:00,
2013-02-19 15:50:00,52.1,35.0,29.99,SW,227,2.0,7.0,52,0.00,CLR,,0.00,WeatherDisplay:10.37,2013-02-19 14:50:00,
2013-02-19 16:00:00,51.7,33.6,29.99,WSW,244,3.0,8.0,50,0.00,CLR,,0.00,WeatherDisplay:10.37,2013-02-19 15:00:00,
2013-02-19 16:10:00,51.1,33.5,29.99,WSW,250,2.0,9.0,51,0.00,CLR,,0.00,WeatherDisplay:10.37,2013-02-19 15:10:00,
2013-02-19 16:20:00,50.8,33.3,29.99,West,275,2.0,9.0,51,0.00,CLR,,0.00,WeatherDisplay:10.37,2013-02-19 15:20:00,
2013-02-19 16:30:00,50.9,33.4,29.98,West,270,2.0,7.0,51,0.00,CLR,,0.00,WeatherDisplay:10.37,2013-02-19 15:30:00,
2013-02-19 16:40:00,50.5,33.5,29.98,WSW,257,2.0,7.0,52,0.00,CLR,,0.00,WeatherDisplay:10.37,2013-02-19 15:40:00,
2013-02-19 16:50:00,50.1,34.1,29.98,West,272,1.0,9.0,54,0.00,CLR,,0.00,WeatherDisplay:10.37,2013-02-19 15:50:00,
2013-02-19 17:00:00,50.2,34.2,29.98,West,266,5.0,8.0,54,0.00,CLR,,0.00,WeatherDisplay:10.37,2013-02-19 16:00:00,
2013-02-19 17:10:00,49.6,35.0,29.98,West,261,5.0,8.0,57,0.00,CLR,,0.00,WeatherDisplay:10.37,2013-02-19 16:10:00,
2013-02-19 17:20:00,49.3,35.6,29.98,WSW,254,2.0,7.0,59,0.00,CLR,,0.00,WeatherDisplay:10.37,2013-02-19 16:20:00,
2013-02-19 17:30:00,48.6,35.3,29.98,West,268,5.0,8.0,60,0.00,CLR,,0.00,WeatherDisplay:10.37,2013-02-19 16:30:00,
2013-02-19 17:40:00,48.1,36.1,29.98,West,266,2.0,10.0,63,0.00,CLR,,0.00,WeatherDisplay:10.37,2013-02-19 16:40:00,
2013-02-19 17:50:00,47.9,36.3,29.98,WSW,243,1.0,7.0,64,0.00,CLR,,0.00,WeatherDisplay:10.37,2013-02-19 16:50:00,
2013-02-19 18:00:00,47.7,36.1,29.99,WSW,250,5.0,7.0,64,0.00,CLR,,0.00,WeatherDisplay:10.37,2013-02-19 17:00:00,
2013-02-19 18:10:00,47.6,36.0,29.99,WSW,257,1.0,10.0,64,0.00,CLR,,0.00,WeatherDisplay:10.37,2013-02-19 17:10:00,
2013-02-19 18:20:00,47.6,36.0,29.99,SW,230,0.0,5.0,64,0.00,CLR,,0.00,WeatherDisplay:10.37,2013-02-19 17:20:00,
2013-02-19 18:30:00,47.6,36.8,29.99,SW,221,0.0,4.0,66,0.00,CLR,,0.00,WeatherDisplay:10.37,2013-02-19 17:30:00,
2013-02-19 18:40:00,47.6,37.2,29.99,West,262,1.0,7.0,67,0.00,CLR,,0.00,WeatherDisplay:10.37,2013-02-19 17:40:00,
2013-02-19 18:50:00,47.5,37.4,30.00,SW,234,1.0,6.0,68,0.00,CLR,,0.00,WeatherDisplay:10.37,2013-02-19 17:50:00,
2013-02-19 19:00:00,47.3,37.3,30.00,WSW,252,0.0,4.0,68,0.00,CLR,,0.00,WeatherDisplay:10.37,2013-02-19 18:00:00,
2013-02-19 19:10:00,47.3,37.3,30.00,WSW,242,1.0,7.0,68,0.00,CLR,,0.00,WeatherDisplay:10.37,2013-02-19 18:10:00,
2013-02-19 19:20:00,47.3,36.9,30.00,SW,235,0.0,5.0,67,0.00,CLR,,0.00,WeatherDisplay:10.37,2013-02-19 18:20:00,
2013-02-19 19:30:00,47.3,37.3,30.00,SSW,194,0.0,2.0,68,0.00,CLR,,0.00,WeatherDisplay:10.37,2013-02-19 18:30:00,
2013-02-19 19:40:00,47.2,37.5,30.00,SSW,202,0.0,1.0,69,0.00,CLR,,0.00,WeatherDisplay:10.37,2013-02-19 18:40:00,
2013-02-19 19:50:00,47.2,37.5,30.00,SW,228,0.0,4.0,69,0.00,CLR,,0.00,WeatherDisplay:10.37,2013-02-19 18:50:00,
2013-02-19 20:00:00,47.0,37.4,30.00,SW,228,0.0,3.0,69,0.00,CLR,,0.00,WeatherDisplay:10.37,2013-02-19 19:00:00,
2013-02-19 20:10:00,47.0,37.4,30.00,WSW,253,1.0,3.0,69,0.00,CLR,,0.00,WeatherDisplay:10.37,2013-02-19 19:10:00,
2013-02-19 20:20:00,47.2,37.6,30.00,SSW,196,0.0,3.0,69,0.00,CLR,,0.00,WeatherDisplay:10.37,2013-02-19 19:20:00,
2013-02-19 20:30:00,47.1,37.4,30.01,SSW,196,0.0,1.0,69,0.00,CLR,,0.00,WeatherDisplay:10.37,2013-02-19 19:30:00,
2013-02-19 20:40:00,46.9,37.7,30.01,SSW,196,0.0,2.0,70,0.00,CLR,,0.00,WeatherDisplay:10.37,2013-02-19 19:40:00,
2013-02-19 20:50:00,46.9,37.6,30.01,SSW,196,0.0,2.0,70,0.00,CLR,,0.00,WeatherDisplay:10.37,2013-02-19 19:50:00,
2013-02-19 21:00:00,46.8,37.5,30.02,SSW,196,0.0,0.0,70,0.00,CLR,,0.00,WeatherDisplay:10.37,2013-02-19 20:00:00,
2013-02-19 21:10:00,46.8,37.9,30.02,SSW,196,0.0,0.0,71,0.00,CLR,,0.00,WeatherDisplay:10.37,2013-02-19 20:10:00,
2013-02-19 21:20:00,46.7,37.8,30.02,SSW,196,0.0,0.0,71,0.00,CLR,,0.00,WeatherDisplay:10.37,2013-02-19 20:20:00,
2013-02-19 21:30:00,46.6,38.1,30.02,SSW,196,0.0,0.0,72,0.00,CLR,,0.00,WeatherDisplay:10.37,2013-02-19 20:30:00,
2013-02-19 21:40:00,46.5,38.0,30.02,SSW,196,0.0,0.0,72,0.00,CLR,,0.00,WeatherDisplay:10.37,2013-02-19 20:40:00,
2013-02-19 21:50:00,46.3,37.8,30.02,SSW,196,0.0,0.0,72,0.00,CLR,,0.00,WeatherDisplay:10.37,2013-02-19 20:50:00,
2013-02-19 22:00:00,46.3,38.1,30.03,SSW,196,0.0,0.0,73,0.00,CLR,,0.00,WeatherDisplay:10.37,2013-02-19 21:00:00,
2013-02-19 22:10:00,46.0,38.2,30.03,SSW,196,0.0,0.0,74,0.00,CLR,,0.00,WeatherDisplay:10.37,2013-02-19 21:10:00,
2013-02-19 22:20:00,45.9,38.4,30.03,SSW,196,0.0,0.0,75,0.00,CLR,,0.00,WeatherDisplay:10.37,2013-02-19 21:20:00,
2013-02-19 22:30:00,45.9,38.4,30.03,SSW,196,0.0,0.0,75,0.00,CLR,,0.00,WeatherDisplay:10.37,2013-02-19 21:30:00,
2013-02-19 22:40:00,45.9,38.4,30.03,SSW,196,0.0,0.0,75,0.00,CLR,,0.00,WeatherDisplay:10.37,2013-02-19 21:40:00,
2013-02-19 22:50:00,45.8,38.4,30.03,SSW,196,0.0,0.0,75,0.00,CLR,,0.00,WeatherDisplay:10.37,2013-02-19 21:50:00,
2013-02-19 23:00:00,45.7,38.6,30.03,SSW,196,0.0,0.0,76,0.00,CLR,,0.00,WeatherDisplay:10.37,2013-02-19 22:00:00,
2013-02-19 23:10:00,45.7,38.9,30.03,SSW,196,0.0,0.0,77,0.00,CLR,,0.00,WeatherDisplay:10.37,2013-02-19 22:10:00,
2013-02-19 23:20:00,45.5,38.4,30.03,SSW,196,0.0,0.0,76,0.00,CLR,,0.00,WeatherDisplay:10.37,2013-02-19 22:20:00,
2013-02-19 23:30:00,45.4,38.6,30.03,SSW,196,0.0,0.0,77,0.00,CLR,,0.00,WeatherDisplay:10.37,2013-02-19 22:30:00,
2013-02-19 23:40:00,45.5,38.7,30.03,SSW,196,0.0,0.0,77,0.00,CLR,,0.00,WeatherDisplay:10.37,2013-02-19 22:40:00,
2013-02-19 23:50:00,45.4,38.6,30.03,SSW,196,0.0,0.0,77,0.00,CLR,,0.00,WeatherDisplay:10.37,2013-02-19 22:50:00,